createdAt,value
2017-12-31T00:02:27.268Z,95608.69
2017-12-31T00:04:54.879Z,95601.83
2017-12-31T00:07:22.422Z,95600.63
2017-12-31T00:09:50.093Z,95603.90
2017-12-31T00:12:17.648Z,95605.23
2017-12-31T00:14:45.234Z,95609.42
2017-12-31T00:19:50.391Z,95614.06
2017-12-31T00:22:18.406Z,95612.84
2017-12-31T00:24:45.978Z,95607.56
2017-12-31T00:27:13.772Z,95611.17
2017-12-31T00:29:42.077Z,95614.91
2017-12-31T00:32:09.653Z,95615.33
2017-12-31T00:34:37.315Z,95619.89
2017-12-31T00:37:04.920Z,95628.67
2017-12-31T00:39:32.532Z,95629.53
2017-12-31T00:42:00.151Z,95625.94
2017-12-31T00:44:28.292Z,95620.27
2017-12-31T00:46:55.863Z,95625.78
2017-12-31T00:49:23.469Z,95623.12
2017-12-31T00:51:51.239Z,95629.34
2017-12-31T00:54:18.852Z,95631.51
2017-12-31T00:56:46.657Z,95628.22
2017-12-31T00:59:14.540Z,95624.45
2017-12-31T01:01:42.384Z,95625.45
2017-12-31T01:04:10.010Z,95626.02
2017-12-31T01:06:38.279Z,95625.44
2017-12-31T01:09:06.513Z,95626.14
2017-12-31T01:11:34.311Z,95625.33
2017-12-31T01:14:01.941Z,95621.23
2017-12-31T01:16:30.250Z,95634.50
2017-12-31T01:18:58.042Z,95630.67
2017-12-31T01:21:26.568Z,95628.66
2017-12-31T01:23:54.766Z,95622.17
2017-12-31T01:26:33.328Z,95624.28
2017-12-31T01:29:02.926Z,95620.81
2017-12-31T01:31:30.562Z,95620.13
2017-12-31T01:33:58.149Z,95628.11
2017-12-31T01:36:26.131Z,95621.62
2017-12-31T01:38:54.579Z,95612.31
2017-12-31T01:41:22.327Z,95617.34
2017-12-31T01:43:49.864Z,95618.37
2017-12-31T01:46:17.734Z,95610.41
2017-12-31T01:48:57.017Z,95595.31
2017-12-31T01:51:24.857Z,95593.08
2017-12-31T01:53:52.622Z,95602.91
2017-12-31T01:56:20.191Z,95602.36
2017-12-31T01:58:47.793Z,95604.75
2017-12-31T02:01:15.380Z,95608.17
2017-12-31T02:03:42.963Z,95610.94
2017-12-31T02:06:10.548Z,95605.39
2017-12-31T02:08:38.138Z,95610.27
2017-12-31T02:11:05.692Z,95610.34
2017-12-31T02:13:33.249Z,95613.78
2017-12-31T02:16:00.831Z,95607.80
2017-12-31T02:18:28.424Z,95622.02
2017-12-31T02:20:55.986Z,95629.19
2017-12-31T02:23:23.593Z,95626.24
2017-12-31T02:25:51.312Z,95630.12
2017-12-31T02:28:18.935Z,95634.23
2017-12-31T02:30:46.554Z,95632.44
2017-12-31T02:33:14.376Z,95639.68
2017-12-31T02:35:42.751Z,95643.00
2017-12-31T02:38:11.147Z,95642.45
2017-12-31T02:40:38.950Z,95632.13
2017-12-31T02:43:06.842Z,95627.20
2017-12-31T02:48:01.353Z,95622.41
2017-12-31T02:50:28.917Z,95625.55
2017-12-31T02:52:57.213Z,95614.81
2017-12-31T02:55:24.780Z,95613.45
2017-12-31T02:57:52.551Z,95605.67
2017-12-31T03:00:21.891Z,95607.53
2017-12-31T03:02:49.725Z,95615.36
2017-12-31T03:05:17.474Z,95616.58
2017-12-31T03:07:45.292Z,95618.30
2017-12-31T03:10:13.045Z,95624.03
2017-12-31T03:12:41.016Z,95616.30
2017-12-31T03:15:08.656Z,95621.52
2017-12-31T03:17:36.262Z,95623.34
2017-12-31T03:20:04.560Z,95627.00
2017-12-31T03:22:33.156Z,95626.64
2017-12-31T03:25:01.462Z,95630.75
2017-12-31T03:27:29.062Z,95635.03
2017-12-31T03:29:56.653Z,95641.01
2017-12-31T03:32:24.221Z,95640.39
2017-12-31T03:34:52.014Z,95633.80
2017-12-31T03:37:19.826Z,95617.77
2017-12-31T03:39:47.459Z,95627.14
2017-12-31T03:42:15.369Z,95629.73
2017-12-31T03:44:42.920Z,95644.56
2017-12-31T03:47:10.523Z,95652.55
2017-12-31T03:49:38.354Z,95657.52
2017-12-31T03:52:05.963Z,95664.80
2017-12-31T03:54:34.860Z,95668.20
2017-12-31T03:57:02.627Z,95662.69
2017-12-31T03:59:30.519Z,95662.94
2017-12-31T04:01:58.107Z,95658.94
2017-12-31T04:04:25.657Z,95664.87
2017-12-31T04:06:53.216Z,95665.06
2017-12-31T04:09:21.689Z,95663.73
2017-12-31T04:11:49.217Z,95668.61
2017-12-31T04:14:17.689Z,95677.86
2017-12-31T04:16:45.351Z,95664.75
2017-12-31T04:19:13.746Z,95660.55
2017-12-31T04:21:41.533Z,95663.09
2017-12-31T04:24:10.089Z,95668.25
2017-12-31T04:26:37.791Z,95672.39
2017-12-31T04:29:05.381Z,95678.92
2017-12-31T04:31:32.968Z,95684.12
2017-12-31T04:34:00.611Z,95683.84
2017-12-31T04:36:30.263Z,95682.16
2017-12-31T04:38:58.551Z,95682.23
2017-12-31T04:41:26.165Z,95671.69
2017-12-31T04:43:53.913Z,95682.70
2017-12-31T04:46:21.733Z,95682.41
2017-12-31T04:48:49.317Z,95683.88
2017-12-31T04:51:16.953Z,95681.06
2017-12-31T04:53:45.510Z,95688.34
2017-12-31T04:56:13.293Z,95689.95
2017-12-31T04:58:41.441Z,95696.25
2017-12-31T05:01:09.287Z,95703.19
2017-12-31T05:03:36.915Z,95697.98
2017-12-31T05:06:04.497Z,95696.09
2017-12-31T05:08:32.955Z,95697.33
2017-12-31T05:11:00.978Z,95704.43
2017-12-31T05:13:28.604Z,95711.05
2017-12-31T05:15:57.042Z,95706.38
2017-12-31T05:18:24.699Z,95710.72
2017-12-31T05:20:53.497Z,95708.84
2017-12-31T05:23:21.159Z,95718.70
2017-12-31T05:25:48.726Z,95708.49
2017-12-31T05:28:17.094Z,95716.94
2017-12-31T05:30:44.691Z,95717.24
2017-12-31T05:33:12.255Z,95717.95
2017-12-31T05:35:40.728Z,95717.64
2017-12-31T05:38:08.443Z,95716.65
2017-12-31T05:40:37.296Z,95712.09
2017-12-31T05:43:05.020Z,95722.08
2017-12-31T05:45:32.983Z,95733.92
2017-12-31T05:48:00.885Z,95727.78
2017-12-31T05:50:29.655Z,95730.85
2017-12-31T05:52:57.529Z,95736.57
2017-12-31T05:55:25.306Z,95729.49
2017-12-31T05:57:52.950Z,95725.66
2017-12-31T06:00:30.676Z,95721.16
2017-12-31T06:03:04.534Z,95715.14
2017-12-31T06:05:32.560Z,95721.84
2017-12-31T06:08:00.158Z,95728.92
2017-12-31T06:10:27.790Z,95710.00
2017-12-31T06:12:55.666Z,95712.51
2017-12-31T06:15:23.309Z,95709.44
2017-12-31T06:17:50.863Z,95716.20
2017-12-31T06:20:18.499Z,95721.41
2017-12-31T06:22:46.158Z,95719.37
2017-12-31T06:25:13.985Z,95720.58
2017-12-31T06:27:41.976Z,95722.06
2017-12-31T06:30:09.881Z,95716.58
2017-12-31T06:32:37.489Z,95711.47
2017-12-31T06:35:05.485Z,95722.22
2017-12-31T06:37:33.394Z,95737.48
2017-12-31T06:40:00.990Z,95738.14
2017-12-31T06:42:28.553Z,95747.25
2017-12-31T06:44:56.129Z,95750.94
2017-12-31T06:47:23.937Z,95749.38
2017-12-31T06:49:51.532Z,95766.50
2017-12-31T06:52:19.250Z,95761.14
2017-12-31T06:54:47.034Z,95770.02
2017-12-31T06:57:14.582Z,95769.64
2017-12-31T06:59:47.708Z,95774.56
2017-12-31T07:02:16.244Z,95779.20
2017-12-31T07:04:44.493Z,95773.93
2017-12-31T07:07:12.114Z,95768.72
2017-12-31T07:09:39.895Z,95778.05
2017-12-31T07:12:07.460Z,95775.61
2017-12-31T07:14:35.064Z,95775.42
2017-12-31T07:17:02.663Z,95791.88
2017-12-31T07:19:31.028Z,95793.99
2017-12-31T07:21:58.822Z,95792.63
2017-12-31T07:24:26.450Z,95785.44
2017-12-31T07:26:54.082Z,95799.67
2017-12-31T07:29:21.697Z,95806.84
2017-12-31T07:31:49.387Z,95805.53
2017-12-31T07:34:17.196Z,95814.30
2017-12-31T07:36:44.995Z,95827.63
2017-12-31T07:39:12.816Z,95830.87
2017-12-31T07:41:40.361Z,95826.57
2017-12-31T07:44:08.134Z,95819.67
2017-12-31T07:46:35.777Z,95822.03
2017-12-31T07:49:03.542Z,95824.06
2017-12-31T07:51:31.382Z,95800.38
2017-12-31T07:53:58.931Z,95801.08
2017-12-31T07:56:26.529Z,95798.01
2017-12-31T07:58:54.472Z,95802.64
2017-12-31T08:01:22.090Z,95795.75
2017-12-31T08:03:49.750Z,95794.55
2017-12-31T08:06:17.666Z,95795.19
2017-12-31T08:08:45.240Z,95800.91
2017-12-31T08:11:14.096Z,95809.18
2017-12-31T08:13:41.967Z,95800.67
2017-12-31T08:16:09.661Z,95807.69
2017-12-31T08:18:37.456Z,95815.58
2017-12-31T08:21:05.555Z,95822.04
2017-12-31T08:23:34.410Z,95814.66
2017-12-31T08:26:02.120Z,95831.84
2017-12-31T08:28:30.177Z,95816.87
2017-12-31T08:30:57.877Z,95822.27
2017-12-31T08:33:25.572Z,95821.18
2017-12-31T08:35:53.892Z,95828.02
2017-12-31T08:38:22.669Z,95830.67
2017-12-31T08:40:50.642Z,95829.53
2017-12-31T08:43:18.385Z,95846.50
2017-12-31T08:45:46.178Z,95840.73
2017-12-31T08:48:14.877Z,95831.70
2017-12-31T08:50:44.855Z,95839.23
2017-12-31T08:53:16.152Z,95832.50
2017-12-31T08:55:46.505Z,95826.59
2017-12-31T08:58:14.772Z,95819.27
2017-12-31T09:00:45.157Z,95836.85
2017-12-31T09:03:13.578Z,95833.29
2017-12-31T09:05:41.593Z,95836.45
2017-12-31T09:08:09.225Z,95831.01
2017-12-31T09:10:36.757Z,95831.84
2017-12-31T09:13:05.447Z,95835.28
2017-12-31T09:15:33.808Z,95832.09
2017-12-31T09:18:01.619Z,95835.44
2017-12-31T09:20:30.967Z,95832.50
2017-12-31T09:22:58.551Z,95819.83
2017-12-31T09:25:26.531Z,95817.70
2017-12-31T09:27:54.150Z,95819.39
2017-12-31T09:30:21.827Z,95798.63
2017-12-31T09:32:49.654Z,95811.27
2017-12-31T09:35:17.259Z,95803.82
2017-12-31T09:37:45.239Z,95804.20
2017-12-31T09:40:12.898Z,95781.27
2017-12-31T09:42:40.533Z,95794.18
2017-12-31T09:45:08.750Z,95802.25
2017-12-31T09:47:36.344Z,95795.68
2017-12-31T09:50:03.914Z,95795.56
2017-12-31T09:52:31.516Z,95791.13
2017-12-31T09:54:59.085Z,95793.84
2017-12-31T09:57:26.620Z,95774.97
2017-12-31T09:59:54.182Z,95773.63
2017-12-31T10:02:21.763Z,95763.38
2017-12-31T10:04:49.277Z,95759.11
2017-12-31T10:07:16.802Z,95760.20
2017-12-31T10:09:44.389Z,95753.01
2017-12-31T10:12:11.943Z,95757.75
2017-12-31T10:14:39.499Z,95743.03
2017-12-31T10:17:07.065Z,95758.77
2017-12-31T10:19:34.614Z,95757.61
2017-12-31T10:22:02.160Z,95736.52
2017-12-31T10:24:29.945Z,95748.40
2017-12-31T10:26:57.498Z,95740.23
2017-12-31T10:29:25.050Z,95746.41
2017-12-31T10:31:52.661Z,95743.05
2017-12-31T10:34:20.200Z,95738.56
2017-12-31T10:36:47.793Z,95725.30
2017-12-31T10:39:15.499Z,95719.67
2017-12-31T10:41:43.018Z,95719.55
2017-12-31T10:44:10.590Z,95706.09
2017-12-31T10:46:38.197Z,95715.38
2017-12-31T10:49:05.972Z,95708.92
2017-12-31T10:51:33.663Z,95718.81
2017-12-31T10:54:01.237Z,95723.45
2017-12-31T10:56:29.017Z,95724.51
2017-12-31T10:58:56.574Z,95720.45
2017-12-31T11:01:24.247Z,95711.11
2017-12-31T11:03:52.032Z,95713.42
2017-12-31T11:06:19.587Z,95710.02
2017-12-31T11:08:48.156Z,95711.49
2017-12-31T11:11:15.935Z,95710.37
2017-12-31T11:13:43.475Z,95705.92
2017-12-31T11:16:12.002Z,95704.85
2017-12-31T11:18:39.605Z,95692.69
2017-12-31T11:21:20.029Z,95695.92
2017-12-31T11:24:14.376Z,95690.27
2017-12-31T11:26:42.331Z,95687.01
2017-12-31T11:31:58.019Z,95678.44
2017-12-31T11:34:26.130Z,95674.38
2017-12-31T11:36:54.295Z,95671.87
2017-12-31T11:39:22.178Z,95652.17
2017-12-31T11:41:50.033Z,95649.28
2017-12-31T11:44:17.815Z,95654.70
2017-12-31T11:46:45.820Z,95648.47
2017-12-31T11:49:14.626Z,95647.50
2017-12-31T11:51:42.326Z,95636.66
2017-12-31T11:54:09.990Z,95631.31
2017-12-31T11:56:37.630Z,95632.17
2017-12-31T11:59:05.186Z,95631.31
2017-12-31T12:01:32.827Z,95629.14
2017-12-31T12:04:00.439Z,95619.26
2017-12-31T12:06:28.350Z,95628.09
2017-12-31T12:08:56.194Z,95618.87
2017-12-31T12:11:23.876Z,95623.22
2017-12-31T12:13:52.532Z,95614.51
2017-12-31T12:16:20.350Z,95620.70
2017-12-31T12:18:51.257Z,95613.30
2017-12-31T12:21:18.839Z,95618.20
2017-12-31T12:23:46.441Z,95625.63
2017-12-31T12:26:15.036Z,95621.75
2017-12-31T12:28:42.587Z,95613.63
2017-12-31T12:31:10.181Z,95607.12
2017-12-31T12:33:47.833Z,95605.64
2017-12-31T12:36:15.482Z,95578.47
2017-12-31T12:38:43.110Z,95604.72
2017-12-31T12:41:11.466Z,95602.03
2017-12-31T12:43:40.270Z,95613.59
2017-12-31T12:46:08.081Z,95604.03
2017-12-31T12:48:38.222Z,95597.11
2017-12-31T12:51:06.063Z,95598.02
2017-12-31T12:53:33.614Z,95594.23
2017-12-31T12:56:01.250Z,95589.75
2017-12-31T12:58:28.981Z,95587.09
2017-12-31T13:00:56.862Z,95583.43
2017-12-31T13:03:25.412Z,95594.23
2017-12-31T13:05:53.683Z,95586.84
2017-12-31T13:09:06.719Z,95586.23
2017-12-31T13:11:35.963Z,95601.89
2017-12-31T13:14:04.657Z,95597.45
2017-12-31T13:16:32.329Z,95558.11
2017-12-31T13:19:01.096Z,95591.31
2017-12-31T13:21:28.935Z,95591.97
2017-12-31T13:23:58.670Z,95587.96
2017-12-31T13:26:26.525Z,95604.98
2017-12-31T13:28:55.550Z,95600.44
2017-12-31T13:31:25.195Z,95598.30
2017-12-31T13:33:53.014Z,95599.59
2017-12-31T13:36:20.846Z,95608.13
2017-12-31T13:38:50.997Z,95604.23
2017-12-31T13:41:19.184Z,95604.17
2017-12-31T13:43:49.005Z,95602.69
2017-12-31T13:46:19.129Z,95597.53
2017-12-31T13:48:46.934Z,95572.28
2017-12-31T13:51:14.667Z,95588.42
2017-12-31T13:53:43.181Z,95596.03
2017-12-31T13:56:11.725Z,95593.73
2017-12-31T13:58:39.886Z,95591.86
2017-12-31T14:01:08.116Z,95591.62
2017-12-31T14:03:38.154Z,95593.30
2017-12-31T14:06:07.990Z,95593.25
2017-12-31T14:08:36.375Z,95595.69
2017-12-31T14:11:04.141Z,95588.16
2017-12-31T14:13:31.965Z,95585.64
2017-12-31T14:16:27.608Z,95583.25
2017-12-31T14:19:01.409Z,95582.63
2017-12-31T14:21:29.148Z,95591.43
2017-12-31T14:23:57.032Z,95598.22
2017-12-31T14:26:24.637Z,95598.99
2017-12-31T14:28:54.053Z,95603.52
2017-12-31T14:31:22.544Z,95599.42
2017-12-31T14:33:51.272Z,95596.17
2017-12-31T14:36:20.729Z,95602.24
2017-12-31T14:42:11.643Z,95602.34
2017-12-31T14:44:40.664Z,95609.36
2017-12-31T14:47:11.611Z,95610.72
2017-12-31T14:49:40.892Z,95607.50
2017-12-31T14:52:09.568Z,95604.13
2017-12-31T14:54:40.162Z,95610.87
2017-12-31T14:57:24.261Z,95615.41
2017-12-31T14:59:58.054Z,95607.72
2017-12-31T15:02:25.917Z,95602.70
2017-12-31T15:04:57.902Z,95616.08
2017-12-31T15:07:26.246Z,95608.84
2017-12-31T15:09:54.424Z,95619.59
2017-12-31T15:12:23.047Z,95611.17
2017-12-31T15:14:50.843Z,95618.32
2017-12-31T15:17:22.202Z,95623.83
2017-12-31T15:19:50.010Z,95627.80
2017-12-31T15:22:17.866Z,95626.94
2017-12-31T15:24:45.508Z,95630.48
2017-12-31T15:27:13.567Z,95628.41
2017-12-31T15:29:41.644Z,95628.98
2017-12-31T15:34:51.369Z,95634.34
2017-12-31T15:37:21.365Z,95636.05
2017-12-31T15:39:49.953Z,95638.46
2017-12-31T15:42:17.718Z,95642.52
2017-12-31T15:44:47.228Z,95643.69
2017-12-31T15:47:38.879Z,95638.15
2017-12-31T15:50:06.973Z,95637.31
2017-12-31T15:52:34.634Z,95639.91
2017-12-31T15:55:02.252Z,95627.71
2017-12-31T15:57:29.969Z,95635.45
2017-12-31T15:59:57.840Z,95629.43
2017-12-31T16:02:26.669Z,95630.05
2017-12-31T16:04:54.410Z,95636.76
2017-12-31T16:07:23.160Z,95637.75
2017-12-31T16:10:03.808Z,95640.31
2017-12-31T16:12:39.076Z,95635.91
2017-12-31T16:15:08.784Z,95637.91
2017-12-31T16:17:42.247Z,95637.19
2017-12-31T16:20:10.341Z,95634.78
2017-12-31T16:22:38.110Z,95631.06
2017-12-31T16:25:16.428Z,95633.91
2017-12-31T16:27:46.989Z,95627.11
2017-12-31T16:30:14.872Z,95634.46
2017-12-31T19:10:33.237Z,95679.74
2017-12-31T19:13:01.027Z,95676.66
2017-12-31T19:15:28.696Z,95670.31
2017-12-31T19:17:56.423Z,95680.61
2017-12-31T19:23:37.469Z,95669.23
2017-12-31T19:26:05.318Z,95674.10
2017-12-31T19:28:33.172Z,95674.52
2017-12-31T19:31:01.244Z,95680.87
2017-12-31T19:33:29.347Z,95665.22
2017-12-31T19:35:57.508Z,95665.95
2017-12-31T19:38:25.492Z,95679.14
2017-12-31T19:40:56.603Z,95678.20
2017-12-31T19:43:24.374Z,95678.30
2017-12-31T19:45:53.716Z,95676.11
2017-12-31T19:48:21.736Z,95674.77
2017-12-31T19:50:50.212Z,95685.45
2017-12-31T19:53:17.944Z,95678.92
2017-12-31T19:55:45.698Z,95682.64
2017-12-31T19:58:13.677Z,95685.00
2017-12-31T20:00:41.798Z,95682.97
2017-12-31T20:03:09.925Z,95680.88
2017-12-31T20:05:38.084Z,95672.10
2017-12-31T20:08:05.940Z,95676.18
2017-12-31T20:10:34.019Z,95683.30
2017-12-31T20:13:01.854Z,95679.48
2017-12-31T20:15:30.086Z,95674.20
2017-12-31T20:17:57.835Z,95676.38
2017-12-31T20:20:26.055Z,95670.55
2017-12-31T20:22:53.740Z,95665.75
2017-12-31T20:25:21.696Z,95663.68
2017-12-31T20:27:49.380Z,95681.94
2017-12-31T20:30:17.184Z,95683.58
2017-12-31T20:32:44.946Z,95692.10
2017-12-31T20:35:12.959Z,95685.05
2017-12-31T20:37:41.674Z,95684.48
2017-12-31T20:40:21.615Z,95622.28
2017-12-31T20:42:49.500Z,95684.58
2017-12-31T20:45:17.478Z,95678.41
2017-12-31T20:47:45.484Z,95681.90
2017-12-31T20:50:13.383Z,95680.33
2017-12-31T20:52:41.184Z,95686.52
2017-12-31T20:55:08.918Z,95684.74
2017-12-31T20:58:07.392Z,95686.53
2017-12-31T21:00:35.099Z,95688.02
2017-12-31T21:03:02.957Z,95680.42
2017-12-31T21:05:30.685Z,95677.73
2017-12-31T21:07:58.513Z,95671.64
2017-12-31T21:10:26.344Z,95680.94
2017-12-31T21:12:54.807Z,95672.96
2017-12-31T21:15:22.549Z,95679.07
2017-12-31T21:17:50.385Z,95684.68
2017-12-31T21:20:18.114Z,95687.47
2017-12-31T21:22:46.802Z,95680.52
2017-12-31T21:25:14.493Z,95677.75
2017-12-31T21:27:42.228Z,95685.63
2017-12-31T21:30:10.179Z,95678.10
2017-12-31T21:32:37.872Z,95677.31
2017-12-31T21:35:05.541Z,95678.16
2017-12-31T21:37:33.713Z,95686.63
2017-12-31T21:40:01.386Z,95689.09
2017-12-31T21:42:29.112Z,95682.73
2017-12-31T21:44:56.862Z,95682.23
2017-12-31T21:47:24.573Z,95681.70
2017-12-31T21:49:52.424Z,95683.80
2017-12-31T21:52:20.141Z,95693.28
2017-12-31T21:54:47.832Z,95675.63
2017-12-31T21:57:15.524Z,95682.50
2017-12-31T21:59:43.386Z,95677.89
2017-12-31T22:02:11.337Z,95685.08
2017-12-31T22:04:38.948Z,95679.97
2017-12-31T22:07:07.899Z,95680.14
2017-12-31T22:09:35.815Z,95685.16
2017-12-31T22:12:03.477Z,95684.05
2017-12-31T22:14:31.447Z,95678.41
2017-12-31T22:16:59.801Z,95676.64
2017-12-31T22:19:27.509Z,95677.11
2017-12-31T22:21:56.933Z,95675.36
2017-12-31T22:24:25.441Z,95673.92
2017-12-31T22:26:53.298Z,95678.16
2017-12-31T22:36:18.094Z,95676.36
2017-12-31T22:43:56.806Z,95668.99
2017-12-31T22:46:27.966Z,95667.59
2017-12-31T22:49:00.805Z,95659.20
2017-12-31T22:51:28.736Z,95667.31
2017-12-31T22:53:59.586Z,95674.06
2017-12-31T22:56:29.358Z,95669.54
2017-12-31T22:59:01.983Z,95676.70
2017-12-31T23:04:59.235Z,95674.10
2017-12-31T23:07:28.004Z,95665.89
2017-12-31T23:09:56.683Z,95659.34
2017-12-31T23:12:25.556Z,95592.45
2017-12-31T23:14:53.964Z,95654.30
2017-12-31T23:17:23.964Z,95661.72
2017-12-31T23:19:51.846Z,95659.01
2017-12-31T23:22:20.733Z,95622.58
2017-12-31T23:25:10.620Z,95647.83
2017-12-31T23:38:01.333Z,95631.27
2017-12-31T23:40:30.888Z,95625.77
2017-12-31T23:42:59.242Z,95618.02
2017-12-31T23:45:44.509Z,95624.89
2017-12-31T23:48:12.075Z,95628.52
2017-12-31T23:50:43.983Z,95616.19
2017-12-31T23:53:12.682Z,95622.91
2017-12-31T23:55:41.806Z,95621.36
2017-12-31T23:58:10.218Z,95627.93
